createdAt,value
2018-02-20T04:48:45.985Z,38.70
2018-02-20T04:49:45.927Z,39.18
2018-02-20T04:51:39.360Z,39.66
2018-02-20T04:52:39.304Z,39.95
2018-02-20T04:54:32.697Z,39.95
2018-02-20T04:55:32.689Z,40.33
2018-02-20T04:57:27.126Z,39.66
2018-02-20T04:58:27.082Z,39.76
2018-02-20T05:00:21.472Z,39.47
2018-02-20T05:01:21.481Z,39.76
2018-02-20T05:03:15.906Z,39.49
2018-02-20T05:04:15.939Z,39.18
2018-02-20T05:06:09.302Z,39.18
2018-02-20T05:07:09.254Z,39.28
2018-02-20T05:08:09.259Z,39.37
2018-02-20T05:09:09.263Z,39.18
2018-02-20T05:10:09.268Z,39.08
2018-02-20T05:11:09.272Z,39.28
2018-02-20T05:12:09.295Z,39.37
2018-02-20T05:13:09.283Z,39.28
2018-02-20T05:14:09.294Z,39.37
2018-02-20T05:15:09.290Z,38.99
2018-02-20T05:16:09.295Z,39.18
2018-02-20T05:17:09.300Z,38.99
2018-02-20T05:18:09.310Z,39.08
2018-02-20T05:19:09.313Z,39.08
2018-02-20T05:20:09.320Z,38.89
2018-02-20T05:21:09.322Z,38.79
2018-02-20T05:22:09.327Z,38.70
2018-02-20T05:23:09.329Z,38.79
2018-02-20T05:24:09.336Z,38.79
2018-02-20T05:25:09.347Z,38.81
2018-02-20T05:26:09.347Z,38.72
2018-02-20T05:27:09.352Z,38.62
2018-02-20T05:28:09.358Z,38.53
2018-02-20T05:29:09.361Z,38.53
2018-02-20T05:30:09.370Z,39.11
2018-02-20T05:31:09.373Z,40.35
2018-02-20T05:32:09.378Z,42.08
2018-02-20T05:33:09.386Z,41.99
2018-02-20T05:34:09.388Z,45.15
2018-02-20T05:35:09.396Z,47.17
2018-02-20T05:36:09.402Z,47.17
2018-02-20T05:37:09.415Z,45.54
2018-02-20T05:38:09.412Z,45.35
2018-02-20T05:39:09.418Z,44.77
2018-02-20T05:40:09.424Z,45.15
2018-02-20T05:41:09.430Z,45.35
2018-02-20T05:42:09.435Z,47.56
2018-02-20T05:43:09.440Z,47.46
2018-02-20T05:44:09.448Z,47.49
2018-02-20T05:45:09.453Z,47.58
2018-02-20T05:46:09.460Z,47.58
2018-02-20T05:47:09.484Z,47.30
2018-02-20T05:48:09.474Z,47.87
2018-02-20T05:49:09.477Z,47.77
2018-02-20T05:50:09.483Z,48.35
2018-02-20T05:51:09.493Z,48.16
2018-02-20T05:52:09.497Z,48.64
2018-02-20T05:53:09.504Z,48.74
2018-02-20T05:54:09.509Z,48.74
2018-02-20T05:55:09.516Z,48.74
2018-02-20T05:56:09.534Z,49.02
2018-02-20T05:57:09.530Z,48.93
2018-02-20T05:58:09.538Z,49.31
2018-02-20T05:59:09.545Z,49.12
2018-02-20T06:00:09.550Z,48.93
2018-02-20T06:01:09.557Z,48.45
2018-02-20T06:02:09.562Z,48.16
2018-02-20T06:03:09.573Z,48.25
2018-02-20T06:04:09.579Z,48.07
2018-02-20T06:05:09.585Z,48.07
2018-02-20T06:06:09.594Z,48.54
2018-02-20T06:07:09.598Z,48.07
2018-02-20T06:08:09.616Z,48.07
2018-02-20T06:09:09.614Z,47.97
2018-02-20T06:10:09.637Z,47.97
2018-02-20T06:11:09.625Z,47.58
2018-02-20T06:12:09.634Z,47.49
2018-02-20T06:13:09.690Z,47.30
2018-02-20T06:14:09.646Z,46.53
2018-02-20T06:15:09.654Z,46.33
2018-02-20T06:16:09.661Z,46.14
2018-02-20T06:17:09.670Z,45.85
2018-02-20T06:18:09.677Z,45.66
2018-02-20T06:19:09.681Z,44.99
2018-02-20T06:20:09.689Z,45.28
2018-02-20T06:21:09.699Z,44.89
2018-02-20T06:22:09.706Z,44.41
2018-02-20T06:23:09.739Z,43.93
2018-02-20T06:24:09.716Z,43.74
2018-02-20T06:25:09.724Z,43.45
2018-02-20T06:26:09.731Z,43.35
2018-02-20T06:27:09.736Z,43.08
2018-02-20T06:28:09.746Z,43.35
2018-02-20T06:29:09.753Z,42.70
2018-02-20T06:30:09.759Z,42.60
2018-02-20T06:31:09.784Z,42.32
2018-02-20T06:32:09.775Z,42.12
2018-02-20T06:33:09.781Z,42.50
2018-02-20T06:34:09.789Z,41.72
2018-02-20T06:35:09.795Z,42.22
2018-02-20T06:36:09.802Z,42.03
2018-02-20T06:37:09.810Z,41.26
2018-02-20T06:54:18.080Z,40.58
2018-02-20T06:55:18.015Z,41.05
2018-02-20T06:57:11.450Z,41.05
2018-02-20T06:58:11.401Z,41.33
2018-02-20T07:00:04.794Z,42.00
2018-02-20T07:01:04.791Z,41.91
2018-02-20T07:02:58.248Z,42.87
2018-02-20T07:03:58.189Z,43.26
2018-02-20T07:05:51.587Z,43.07
2018-02-20T07:06:51.587Z,43.16
2018-02-20T07:08:45.033Z,43.16
2018-02-20T07:09:44.985Z,43.35
2018-02-20T07:11:38.394Z,43.16
2018-02-20T07:12:38.393Z,43.16
2018-02-20T07:14:31.836Z,43.16
2018-02-20T07:15:31.793Z,43.16
2018-02-20T07:50:07.256Z,43.26
2018-02-20T07:51:07.178Z,43.16
2018-02-20T07:53:00.608Z,42.68
2018-02-20T07:54:00.566Z,43.26
2018-02-20T07:55:53.952Z,42.58
2018-02-20T07:56:53.948Z,42.68
2018-02-20T07:58:47.387Z,42.39
2018-02-20T07:59:47.347Z,42.20
2018-02-20T08:00:36.937Z,42.58
2018-02-20T08:02:44.587Z,42.77
2018-02-20T08:03:44.536Z,42.87
2018-02-20T08:05:37.934Z,43.16
2018-02-20T08:06:37.939Z,42.30
2018-02-20T08:08:31.373Z,42.39
2018-02-20T19:16:15.306Z,37.22
2018-02-20T19:17:15.197Z,37.03
2018-02-20T19:19:08.627Z,37.22
2018-02-20T19:20:08.577Z,37.13
2018-02-20T19:21:08.592Z,37.60
2018-02-20T19:22:08.575Z,37.51
2018-02-20T19:23:08.574Z,37.41
2018-02-20T19:24:08.576Z,37.13
2018-02-20T19:25:08.575Z,37.32
2018-02-20T19:26:08.578Z,37.41
2018-02-20T19:27:08.579Z,37.41
2018-02-20T19:28:08.581Z,37.80
2018-02-20T19:29:08.583Z,37.89
2018-02-20T19:30:08.591Z,37.89
2018-02-20T19:31:09.188Z,38.09
2018-02-20T19:32:08.593Z,38.01
2018-02-20T19:33:08.597Z,38.20
2018-02-20T19:34:08.600Z,38.39
2018-02-20T19:35:08.607Z,38.49
2018-02-20T19:36:08.607Z,38.39
2018-02-20T19:37:08.647Z,38.29
2018-02-20T19:38:08.672Z,38.49
2018-02-20T19:39:08.622Z,38.68
2018-02-20T19:40:08.625Z,38.29
2018-02-20T19:41:08.629Z,38.29
2018-02-20T19:42:08.636Z,38.49
2018-02-20T19:43:08.638Z,38.49
2018-02-20T19:44:08.642Z,38.39
2018-02-20T19:45:08.648Z,38.39
2018-02-20T19:46:08.650Z,38.39
2018-02-20T19:47:08.659Z,39.73
2018-02-20T19:48:08.662Z,42.04
2018-02-20T19:49:08.667Z,43.10
2018-02-20T19:50:08.680Z,42.61
2018-02-20T19:51:08.675Z,44.54
2018-02-20T19:52:08.701Z,45.78
2018-02-20T19:53:08.685Z,45.68
2018-02-20T19:54:08.691Z,45.01
2018-02-20T19:55:08.697Z,46.74
2018-02-20T19:56:08.716Z,48.28
2018-02-20T19:57:08.754Z,48.28
2018-02-20T19:58:08.715Z,48.28
2018-02-20T19:59:08.714Z,48.76
2018-02-20T20:00:08.719Z,48.95
2018-02-20T20:01:08.739Z,49.15
2018-02-20T20:02:08.752Z,48.85
2018-02-20T20:03:08.734Z,50.39
2018-02-20T20:04:08.738Z,51.06
2018-02-20T20:05:08.744Z,51.35
2018-02-20T20:06:08.772Z,50.84
2018-02-20T20:07:08.753Z,50.49
2018-02-20T20:08:08.757Z,48.93
2018-02-20T20:09:08.761Z,48.54
2018-02-20T20:10:08.769Z,47.87
2018-02-20T20:11:08.772Z,47.68
2018-02-20T20:12:08.778Z,48.54
2018-02-20T20:13:08.785Z,48.16
2018-02-20T20:14:08.789Z,47.71
2018-02-20T20:15:08.789Z,47.58
2018-02-20T20:16:08.808Z,48.16
2018-02-20T20:17:08.802Z,47.97
2018-02-20T20:18:08.806Z,47.97
2018-02-20T20:19:08.809Z,47.77
2018-02-20T20:20:08.814Z,47.87
2018-02-20T20:21:08.822Z,47.58
2018-02-20T20:22:08.827Z,47.49
2018-02-20T20:23:08.826Z,47.49
2018-02-20T20:24:08.839Z,47.39
2018-02-20T20:25:08.837Z,47.58
2018-02-20T20:26:08.895Z,47.01
2018-02-20T20:27:08.846Z,47.20
2018-02-20T20:28:08.849Z,47.01
2018-02-20T20:29:08.854Z,46.53
2018-02-20T20:30:08.929Z,46.62
2018-02-20T20:31:08.865Z,46.24
2018-02-20T20:32:08.870Z,46.24
2018-02-20T20:33:08.874Z,46.43
2018-02-20T20:34:08.946Z,46.05
2018-02-20T20:35:08.898Z,46.05
2018-02-20T20:36:08.900Z,45.76
2018-02-20T20:37:08.894Z,45.57
2018-02-20T20:38:08.909Z,45.37
2018-02-20T20:39:08.920Z,45.18
2018-02-20T20:40:08.906Z,45.18
2018-02-20T20:41:08.912Z,45.28
2018-02-20T20:42:08.917Z,44.90
2018-02-20T20:43:08.985Z,45.09
2018-02-20T20:44:08.926Z,44.63
2018-02-20T20:45:08.941Z,44.61
2018-02-20T20:46:08.934Z,44.73
2018-02-20T20:47:08.943Z,44.15
2018-02-20T20:48:08.947Z,43.87
2018-02-20T20:49:08.951Z,43.87
2018-02-20T20:50:08.955Z,43.48
2018-02-20T20:51:08.962Z,43.77
2018-02-20T20:52:08.965Z,43.46
2018-02-20T20:53:08.973Z,43.19
2018-02-20T20:54:09.003Z,43.19
2018-02-20T20:55:08.979Z,43.19
2018-02-20T20:56:08.985Z,43.19
2018-02-20T20:57:08.989Z,43.19
2018-02-20T20:58:08.996Z,43.19
2018-02-20T20:59:09.007Z,43.19
2018-02-20T21:00:09.025Z,43.29
2018-02-20T21:01:09.025Z,43.19
2018-02-20T21:02:09.066Z,43.19
2018-02-20T21:03:09.021Z,43.00
2018-02-20T21:04:09.028Z,43.10
2018-02-20T21:05:09.757Z,42.90
2018-02-20T21:06:09.038Z,43.19
2018-02-20T21:07:09.042Z,42.71
2018-02-20T21:08:09.046Z,42.71
2018-02-20T21:09:09.056Z,43.00
2018-02-20T21:10:09.057Z,42.71
2018-02-20T21:11:09.061Z,42.43
2018-02-20T21:12:09.068Z,42.52
2018-02-20T21:13:09.072Z,42.33
2018-02-20T21:14:09.076Z,42.23
2018-02-20T21:15:09.083Z,42.13
2018-02-20T21:16:09.087Z,42.23
2018-02-20T21:19:42.051Z,42.33
2018-02-20T21:20:41.998Z,42.43
